Time;durP1;ratioP1;P1;durP2;ratioP2;P2;SDS_P1;SDS_P2;PMS_P1;PMS_P2;Temp;Humidity;BMP_temperature;BMP_pressure;BME280_temperature;BME280_humidity;BME280_pressure;Samples;Min_cycle;Max_cycle;Signal;HPM_P1;HPM_P2
2023/03/18 00:00:17;;;;;;;3.03;1.57;;;;;;;;;;10221051;29;20051;-81
2023/03/18 00:05:22;;;;;;;3.58;1.70;;;;;;;;;;10207850;29;20303;-81
2023/03/18 00:10:26;;;;;;;2.30;1.17;;;;;;;;;;10208969;29;20078;-82
2023/03/18 00:15:29;;;;;;;2.38;1.13;;;;;;;;;;10223052;28;20040;-81
2023/03/18 00:20:38;;;;;;;1.45;1.00;;;;;;;;;;10193772;29;20047;-82
2023/03/18 00:25:42;;;;;;;1.55;1.00;;;;;;;;;;10231233;28;20043;-81
2023/03/18 00:30:46;;;;;;;1.70;0.85;;;;;;;;;;10229554;29;20142;-82
2023/03/18 00:35:52;;;;;;;2.63;1.02;;;;;;;;;;10214506;29;20115;-82
2023/03/18 00:41:09;;;;;;;1.80;0.83;;;;;;;;;;10197071;29;20297;-81
2023/03/18 00:46:15;;;;;;;1.42;0.85;;;;;;;;;;10209515;29;21011;-82
2023/03/18 00:51:21;;;;;;;1.90;1.20;;;;;;;;;;10187728;29;20087;-82
2023/03/18 00:56:26;;;;;;;1.77;1.15;;;;;;;;;;10221004;29;20058;-81
2023/03/18 01:01:31;;;;;;;4.70;1.37;;;;;;;;;;10207048;29;20606;-81
2023/03/18 01:06:37;;;;;;;3.22;1.08;;;;;;;;;;10239654;29;20098;-81
2023/03/18 01:11:41;;;;;;;;;;;;;;;;;;10209508;29;20052;-82
2023/03/18 01:16:45;;;;;;;2.38;1.00;;;;;;;;;;10213748;29;19929;-82
2023/03/18 01:21:50;;;;;;;2.13;0.95;;;;;;;;;;10204858;29;20062;-82
2023/03/18 01:26:54;;;;;;;1.20;0.70;;;;;;;;;;10217466;28;20542;-82
2023/03/18 01:31:59;;;;;;;3.78;1.20;;;;;;;;;;10212231;29;20079;-82
2023/03/18 01:37:04;;;;;;;2.10;1.10;;;;;;;;;;10210753;29;20039;-82
2023/03/18 01:42:11;;;;;;;1.85;0.85;;;;;;;;;;10223716;29;20044;-81
2023/03/18 01:47:16;;;;;;;1.67;0.70;;;;;;;;;;10221441;29;20042;-81
2023/03/18 01:52:31;;;;;;;1.92;0.80;;;;;;;;;;10213288;29;20059;-82
2023/03/18 01:57:36;;;;;;;1.80;0.80;;;;;;;;;;10214811;29;20106;-81
2023/03/18 02:02:41;;;;;;;1.73;0.80;;;;;;;;;;10220731;28;20503;-81
2023/03/18 02:07:46;;;;;;;1.75;0.70;;;;;;;;;;10207013;29;20044;-81
2023/03/18 02:12:55;;;;;;;2.03;0.93;;;;;;;;;;10193753;28;20062;-81
2023/03/18 02:18:08;;;;;;;0.95;0.47;;;;;;;;;;10207382;29;20043;-81
2023/03/18 02:23:23;;;;;;;0.70;0.70;;;;;;;;;;10193976;29;20075;-81
2023/03/18 02:28:30;;;;;;;1.38;0.90;;;;;;;;;;10204338;29;20044;-80
2023/03/18 02:33:38;;;;;;;1.35;0.80;;;;;;;;;;10177495;29;20134;-80
2023/03/18 02:38:43;;;;;;;1.13;0.60;;;;;;;;;;10211176;29;20215;-81
2023/03/18 02:43:53;;;;;;;2.25;0.88;;;;;;;;;;10187689;29;20063;-81
2023/03/18 02:49:00;;;;;;;1.40;0.65;;;;;;;;;;10191086;29;20062;-81
2023/03/18 02:54:06;;;;;;;;;;;;;;;;;;10200971;29;20043;-81
2023/03/18 02:59:13;;;;;;;2.05;1.02;;;;;;;;;;10227498;29;19922;-81
2023/03/18 03:04:17;;;;;;;1.60;0.80;;;;;;;;;;10210446;28;20055;-81
2023/03/18 03:09:22;;;;;;;1.25;0.60;;;;;;;;;;10197810;29;20079;-82
2023/03/18 03:14:27;;;;;;;2.55;0.90;;;;;;;;;;10207720;28;20046;-80
2023/03/18 03:19:34;;;;;;;1.92;1.20;;;;;;;;;;10214469;29;20052;-82
2023/03/18 03:24:38;;;;;;;3.53;1.30;;;;;;;;;;10187212;29;20044;-82
2023/03/18 03:29:43;;;;;;;1.67;1.00;;;;;;;;;;10191240;29;20044;-81
2023/03/18 03:34:48;;;;;;;2.28;1.10;;;;;;;;;;10194612;29;20212;-82
2023/03/18 03:39:51;;;;;;;2.38;1.02;;;;;;;;;;10201774;29;20066;-81
2023/03/18 03:44:55;;;;;;;1.85;1.10;;;;;;;;;;10181347;29;20095;-80
2023/03/18 03:49:59;;;;;;;1.95;1.08;;;;;;;;;;10202584;29;20059;-81
2023/03/18 03:55:03;;;;;;;1.95;1.00;;;;;;;;;;10189157;29;20466;-81
2023/03/18 04:00:13;;;;;;;1.85;1.00;;;;;;;;;;10209495;28;20055;-81
2023/03/18 04:05:20;;;;;;;2.10;1.20;;;;;;;;;;10217903;29;20131;-81
2023/03/18 04:10:25;;;;;;;3.23;1.20;;;;;;;;;;10212212;29;20086;-81
2023/03/18 04:15:30;;;;;;;2.60;1.20;;;;;;;;;;10172312;29;20044;-81
2023/03/18 04:20:39;;;;;;;3.65;1.33;;;;;;;;;;10195098;29;20047;-81
2023/03/18 04:25:51;;;;;;;2.60;1.38;;;;;;;;;;10214029;28;20466;-81
2023/03/18 04:30:57;;;;;;;2.40;1.30;;;;;;;;;;10210175;29;20054;-82
2023/03/18 04:36:00;;;;;;;3.37;1.23;;;;;;;;;;10233219;28;20036;-81
2023/03/18 04:41:05;;;;;;;2.17;1.40;;;;;;;;;;10209387;29;20081;-80
2023/03/18 04:46:10;;;;;;;3.20;1.50;;;;;;;;;;10193285;29;20062;-82
2023/03/18 04:51:14;;;;;;;2.20;0.98;;;;;;;;;;10207950;29;20040;-81
2023/03/18 04:56:19;;;;;;;3.65;1.42;;;;;;;;;;10216988;29;20044;-81
2023/03/18 05:01:27;;;;;;;2.58;1.38;;;;;;;;;;10198620;29;20044;-82
2023/03/18 05:06:32;;;;;;;2.50;1.17;;;;;;;;;;10237995;28;20837;-81
2023/03/18 05:11:42;;;;;;;2.97;1.27;;;;;;;;;;10221631;29;20863;-80
2023/03/18 05:17:14;;;;;;;3.17;1.27;;;;;;;;;;10205545;29;20510;-80
2023/03/18 05:22:20;;;;;;;2.25;1.30;;;;;;;;;;10205569;28;20154;-80
2023/03/18 05:27:29;;;;;;;1.30;1.00;;;;;;;;;;10201995;29;20040;-80
2023/03/18 05:32:39;;;;;;;3.95;1.20;;;;;;;;;;10205734;28;20080;-80
2023/03/18 05:37:44;;;;;;;2.03;0.88;;;;;;;;;;10198879;29;20506;-79
2023/03/18 05:42:48;;;;;;;1.40;1.20;;;;;;;;;;10200675;29;20211;-81
2023/03/18 05:48:07;;;;;;;2.53;1.23;;;;;;;;;;10195522;29;20118;-81
2023/03/18 05:53:18;;;;;;;3.35;1.55;;;;;;;;;;10192967;28;20048;-81
2023/03/18 05:58:29;;;;;;;2.83;1.33;;;;;;;;;;10212284;29;20047;-81
2023/03/18 06:03:48;;;;;;;2.20;1.40;;;;;;;;;;10215263;28;20051;-82
2023/03/18 06:08:52;;;;;;;3.85;1.02;;;;;;;;;;10205375;29;20226;-81
2023/03/18 06:13:57;;;;;;;1.95;1.05;;;;;;;;;;10213649;28;20043;-81
2023/03/18 06:19:02;;;;;;;2.75;1.20;;;;;;;;;;10222234;29;20074;-81
2023/03/18 06:24:06;;;;;;;1.33;1.03;;;;;;;;;;10234225;28;20051;-81
2023/03/18 06:29:11;;;;;;;2.33;1.30;;;;;;;;;;10170163;29;20044;-81
2023/03/18 06:34:16;;;;;;;1.55;1.05;;;;;;;;;;10215058;29;20043;-81
2023/03/18 06:39:20;;;;;;;1.45;1.02;;;;;;;;;;10187053;29;20044;-81
2023/03/18 06:44:25;;;;;;;2.35;1.20;;;;;;;;;;10193869;29;20047;-80
2023/03/18 06:49:35;;;;;;;2.08;1.08;;;;;;;;;;10194982;29;20055;-81
2023/03/18 06:54:46;;;;;;;2.38;1.38;;;;;;;;;;10197352;29;20396;-80
2023/03/18 06:59:52;;;;;;;2.10;1.35;;;;;;;;;;10222588;29;20622;-81
2023/03/18 07:04:58;;;;;;;2.13;1.40;;;;;;;;;;10190825;29;20131;-81
2023/03/18 07:10:03;;;;;;;2.22;1.40;;;;;;;;;;10198521;29;20043;-80
2023/03/18 07:15:08;;;;;;;2.05;1.00;;;;;;;;;;10179787;29;20076;-80
2023/03/18 07:20:14;;;;;;;2.45;0.93;;;;;;;;;;10166971;29;20449;-82
2023/03/18 07:25:18;;;;;;;2.63;0.85;;;;;;;;;;10183451;29;20059;-83
2023/03/18 07:30:23;;;;;;;1.95;1.13;;;;;;;;;;10174458;29;20043;-83
2023/03/18 07:35:30;;;;;;;2.65;1.85;;;;;;;;;;10192748;23;20282;-84
2023/03/18 07:40:34;;;;;;;1.70;0.95;;;;;;;;;;10190166;28;20640;-85
2023/03/18 07:45:38;;;;;;;3.35;1.15;;;;;;;;;;10212029;28;20523;-87
2023/03/18 07:50:43;;;;;;;1.42;0.95;;;;;;;;;;10207382;28;20418;-89
2023/03/18 07:55:46;;;;;;;1.85;1.15;;;;;;;;;;10209623;28;20491;-88
2023/03/18 08:00:50;;;;;;;1.73;0.90;;;;;;;;;;10233274;28;20525;-85
2023/03/18 08:05:56;;;;;;;1.30;1.02;;;;;;;;;;10183034;28;20040;-83
2023/03/18 08:11:01;;;;;;;0.93;0.73;;;;;;;;;;10186418;28;20047;-84
2023/03/18 08:16:05;;;;;;;2.22;0.88;;;;;;;;;;10185747;28;20466;-84
2023/03/18 08:21:10;;;;;;;0.63;0.60;;;;;;;;;;10190622;28;20672;-85
2023/03/18 08:26:13;;;;;;;1.80;0.50;;;;;;;;;;10203318;28;20802;-86
2023/03/18 08:31:17;;;;;;;1.45;0.85;;;;;;;;;;10191238;28;20102;-88
2023/03/18 08:36:26;;;;;;;2.45;1.10;;;;;;;;;;10207935;28;20116;-89
2023/03/18 08:41:33;;;;;;;3.00;1.05;;;;;;;;;;10177577;28;20052;-86
2023/03/18 08:46:37;;;;;;;;;;;;;;;;;;10172947;28;20519;-87
2023/03/18 08:51:42;;;;;;;2.60;0.70;;;;;;;;;;10193561;28;19926;-87
2023/03/18 08:56:46;;;;;;;0.90;0.50;;;;;;;;;;10194160;28;20219;-89
2023/03/18 09:01:50;;;;;;;1.42;0.60;;;;;;;;;;10191875;28;20039;-87
2023/03/18 09:06:56;;;;;;;0.98;0.70;;;;;;;;;;10205707;28;20039;-90
2023/03/18 09:12:00;;;;;;;0.98;0.60;;;;;;;;;;10204264;28;20514;-88
2023/03/18 09:17:03;;;;;;;0.93;0.43;;;;;;;;;;10187954;28;20083;-87
2023/03/18 09:22:09;;;;;;;1.52;0.75;;;;;;;;;;10191385;28;20040;-87
2023/03/18 09:27:13;;;;;;;0.57;0.38;;;;;;;;;;10214833;28;20044;-89
2023/03/18 09:32:16;;;;;;;1.75;0.70;;;;;;;;;;10215990;28;20064;-89
2023/03/18 09:37:23;;;;;;;2.28;0.80;;;;;;;;;;10162816;29;20422;-88
2023/03/18 09:42:38;;;;;;;1.38;0.55;;;;;;;;;;10187760;29;20036;-88
2023/03/18 09:47:58;;;;;;;0.90;0.40;;;;;;;;;;10135940;29;20584;-85
2023/03/18 09:53:12;;;;;;;1.83;1.00;;;;;;;;;;10102128;29;20558;-85
2023/03/18 09:58:24;;;;;;;2.22;0.90;;;;;;;;;;10136023;29;20427;-85
2023/03/18 10:03:34;;;;;;;1.65;0.40;;;;;;;;;;10126748;29;20177;-86
2023/03/18 10:08:54;;;;;;;2.10;0.40;;;;;;;;;;10120963;29;20311;-92
2023/03/18 10:14:15;;;;;;;1.73;0.70;;;;;;;;;;10168851;29;20044;-91
2023/03/18 10:19:19;;;;;;;1.85;0.60;;;;;;;;;;10147997;29;20130;-89
2023/03/18 10:24:32;;;;;;;2.22;0.77;;;;;;;;;;10150151;29;20046;-85
2023/03/18 10:29:42;;;;;;;1.05;0.60;;;;;;;;;;10160180;29;20040;-85
2023/03/18 10:34:57;;;;;;;2.45;0.95;;;;;;;;;;10158459;28;20046;-85
2023/03/18 10:40:10;;;;;;;1.67;0.70;;;;;;;;;;10182474;28;20043;-85
2023/03/18 10:45:24;;;;;;;0.73;0.40;;;;;;;;;;10187432;28;20194;-85
2023/03/18 10:50:33;;;;;;;1.88;0.60;;;;;;;;;;10190713;28;20694;-85
2023/03/18 10:55:46;;;;;;;1.52;0.47;;;;;;;;;;10192489;28;20066;-85
2023/03/18 11:00:50;;;;;;;1.75;0.43;;;;;;;;;;10194027;28;20055;-87
2023/03/18 11:05:54;;;;;;;1.45;0.50;;;;;;;;;;10191533;28;20134;-85
2023/03/18 11:11:20;;;;;;;1.15;0.60;;;;;;;;;;10182857;28;20047;-87
2023/03/18 11:16:28;;;;;;;;;;;;;;;;;;10177990;28;20052;-88
2023/03/18 11:21:33;;;;;;;1.30;0.50;;;;;;;;;;10189268;28;19934;-90
2023/03/18 11:26:52;;;;;;;1.58;0.65;;;;;;;;;;10195746;28;20050;-84
2023/03/18 11:32:00;;;;;;;2.85;0.90;;;;;;;;;;10183087;28;20077;-84
2023/03/18 11:37:05;;;;;;;1.55;0.60;;;;;;;;;;10187092;28;20348;-84
2023/03/18 11:42:20;;;;;;;2.20;0.70;;;;;;;;;;10173722;28;20052;-84
2023/03/18 11:47:27;;;;;;;3.55;1.20;;;;;;;;;;10169506;28;20043;-84
2023/03/18 11:52:38;;;;;;;2.25;0.60;;;;;;;;;;10187885;28;20036;-84
2023/03/18 11:58:05;;;;;;;1.05;0.63;;;;;;;;;;10186312;28;20043;-84
2023/03/18 12:03:51;;;;;;;2.40;0.80;;;;;;;;;;10176772;28;20046;-84
2023/03/18 12:09:03;;;;;;;2.33;0.68;;;;;;;;;;10131556;28;20759;-85
2023/03/18 12:14:16;;;;;;;0.88;0.55;;;;;;;;;;10212665;28;20043;-84
2023/03/18 12:19:43;;;;;;;1.10;0.63;;;;;;;;;;10183924;28;20718;-85
2023/03/18 12:25:04;;;;;;;3.38;1.05;;;;;;;;;;10184863;28;20131;-85
2023/03/18 12:30:35;;;;;;;1.73;0.88;;;;;;;;;;10173197;28;20043;-84
2023/03/18 12:35:50;;;;;;;0.77;0.70;;;;;;;;;;10184102;28;20047;-86
2023/03/18 12:41:01;;;;;;;1.35;0.70;;;;;;;;;;10200775;28;20051;-87
2023/03/18 12:46:16;;;;;;;1.10;0.40;;;;;;;;;;10205745;28;20079;-85
2023/03/18 12:51:25;;;;;;;0.93;0.50;;;;;;;;;;10188397;28;20048;-85
2023/03/18 12:56:30;;;;;;;1.50;0.60;;;;;;;;;;10199630;28;20128;-89
2023/03/18 13:01:40;;;;;;;1.40;0.80;;;;;;;;;;10197957;28;20035;-91
2023/03/18 13:06:51;;;;;;;1.55;0.88;;;;;;;;;;10194818;28;20051;-85
2023/03/18 13:12:13;;;;;;;1.70;0.80;;;;;;;;;;10181131;28;20434;-84
2023/03/18 13:17:24;;;;;;;0.50;0.50;;;;;;;;;;10182267;28;20469;-85
2023/03/18 13:22:57;;;;;;;1.70;0.77;;;;;;;;;;10181792;28;20048;-84
2023/03/18 13:28:25;;;;;;;0.80;0.50;;;;;;;;;;10201435;28;20040;-85
2023/03/18 13:34:07;;;;;;;1.85;0.65;;;;;;;;;;10199683;28;20044;-85
2023/03/18 13:39:25;;;;;;;2.10;0.73;;;;;;;;;;10143587;29;20035;-84
2023/03/18 13:44:42;;;;;;;1.15;0.50;;;;;;;;;;10138107;29;20090;-87
2023/03/18 13:49:46;;;;;;;2.00;0.65;;;;;;;;;;10144390;29;20407;-88
2023/03/18 13:55:00;;;;;;;1.42;0.73;;;;;;;;;;10127279;29;20059;-90
2023/03/18 14:00:30;;;;;;;1.38;0.70;;;;;;;;;;10164363;23;20115;-82
2023/03/18 14:05:39;;;;;;;2.67;0.90;;;;;;;;;;10151143;28;20752;-82
2023/03/18 14:10:44;;;;;;;1.92;0.70;;;;;;;;;;10141894;29;20127;-81
2023/03/18 14:15:47;;;;;;;0.40;0.30;;;;;;;;;;10132403;29;20218;-82
2023/03/18 14:20:54;;;;;;;0.52;0.40;;;;;;;;;;10138381;29;20044;-83
2023/03/18 14:26:04;;;;;;;1.48;0.35;;;;;;;;;;10139314;29;20040;-83
2023/03/18 14:31:32;;;;;;;1.55;0.52;;;;;;;;;;10127599;29;20518;-82
2023/03/18 14:37:04;;;;;;;0.52;0.50;;;;;;;;;;10146291;29;20072;-83
2023/03/18 14:42:23;;;;;;;0.68;0.40;;;;;;;;;;10145649;29;20695;-83
2023/03/18 14:47:37;;;;;;;2.10;0.70;;;;;;;;;;10133728;29;20419;-82
2023/03/18 14:52:43;;;;;;;1.42;0.55;;;;;;;;;;10125595;29;20492;-82
2023/03/18 14:57:48;;;;;;;1.10;0.60;;;;;;;;;;10125742;29;20051;-84
2023/03/18 15:02:59;;;;;;;1.23;0.80;;;;;;;;;;10141548;29;20040;-83
2023/03/18 15:08:08;;;;;;;1.30;0.57;;;;;;;;;;10142521;29;20060;-83
2023/03/18 15:13:16;;;;;;;1.25;0.60;;;;;;;;;;10140436;29;20048;-83
2023/03/18 15:18:25;;;;;;;2.15;0.65;;;;;;;;;;10141708;29;20512;-83
2023/03/18 15:23:32;;;;;;;0.52;0.40;;;;;;;;;;10140960;29;20063;-83
2023/03/18 15:28:37;;;;;;;1.15;0.30;;;;;;;;;;10140954;29;20040;-83
2023/03/18 15:33:41;;;;;;;2.55;0.57;;;;;;;;;;10122865;29;20047;-83
2023/03/18 15:38:47;;;;;;;1.17;0.57;;;;;;;;;;10127600;29;20504;-82
2023/03/18 15:43:52;;;;;;;1.05;0.50;;;;;;;;;;10123447;29;20535;-82
2023/03/18 15:48:57;;;;;;;2.13;0.70;;;;;;;;;;10145750;29;20401;-84
2023/03/18 15:54:06;;;;;;;0.52;0.40;;;;;;;;;;10129965;29;20052;-81
2023/03/18 15:59:14;;;;;;;1.80;0.63;;;;;;;;;;10136876;29;20067;-84
2023/03/18 16:04:18;;;;;;;1.75;0.47;;;;;;;;;;10139556;29;20534;-83
2023/03/18 16:09:23;;;;;;;1.17;0.60;;;;;;;;;;10141676;29;20099;-84
2023/03/18 16:14:34;;;;;;;1.95;0.60;;;;;;;;;;10135380;29;20044;-83
2023/03/18 16:19:37;;;;;;;3.30;0.47;;;;;;;;;;10146843;29;20072;-83
2023/03/18 16:24:42;;;;;;;0.90;0.43;;;;;;;;;;10129015;29;20059;-84
2023/03/18 16:29:48;;;;;;;2.78;0.70;;;;;;;;;;10140954;29;20127;-83
2023/03/18 16:34:52;;;;;;;1.85;0.75;;;;;;;;;;10134759;29;20059;-83
2023/03/18 16:39:56;;;;;;;1.25;0.60;;;;;;;;;;10154003;29;20050;-83
2023/03/18 16:45:00;;;;;;;1.05;0.60;;;;;;;;;;10142103;29;20128;-83
2023/03/18 16:50:06;;;;;;;1.55;0.63;;;;;;;;;;10147928;29;20034;-82
2023/03/18 16:55:12;;;;;;;0.68;0.50;;;;;;;;;;10149937;29;20099;-83
2023/03/18 17:00:21;;;;;;;2.23;0.60;;;;;;;;;;10155438;29;20040;-83
2023/03/18 17:05:26;;;;;;;2.05;0.73;;;;;;;;;;10149206;29;20048;-82
2023/03/18 17:10:29;;;;;;;1.55;0.50;;;;;;;;;;10172898;29;20078;-81
2023/03/18 17:15:36;;;;;;;1.52;0.50;;;;;;;;;;10152109;29;20052;-84
2023/03/18 17:20:41;;;;;;;1.58;0.50;;;;;;;;;;10162645;29;20135;-82
2023/03/18 17:25:50;;;;;;;1.25;0.80;;;;;;;;;;10150366;29;20068;-83
2023/03/18 17:30:55;;;;;;;1.63;0.98;;;;;;;;;;10180360;29;20526;-83
2023/03/18 17:36:00;;;;;;;2.35;1.50;;;;;;;;;;10162982;29;20048;-83
2023/03/18 17:41:10;;;;;;;4.47;2.42;;;;;;;;;;10180034;29;20040;-82
2023/03/18 17:46:15;;;;;;;4.55;2.92;;;;;;;;;;10148503;29;20045;-83
2023/03/18 17:51:22;;;;;;;6.70;3.90;;;;;;;;;;10162343;29;20076;-83
2023/03/18 17:56:26;;;;;;;4.75;3.20;;;;;;;;;;10174430;29;20040;-82
2023/03/18 18:01:31;;;;;;;6.57;3.22;;;;;;;;;;10174302;29;20036;-83
2023/03/18 18:06:35;;;;;;;3.53;2.00;;;;;;;;;;10161666;29;20075;-83
2023/03/18 18:11:43;;;;;;;6.57;2.72;;;;;;;;;;10158334;29;20040;-82
2023/03/18 18:16:48;;;;;;;6.53;2.30;;;;;;;;;;10135185;29;20079;-83
2023/03/18 18:21:53;;;;;;;2.90;1.92;;;;;;;;;;10147060;29;20052;-83
2023/03/18 18:26:57;;;;;;;3.38;2.30;;;;;;;;;;10146841;29;20051;-82
2023/03/18 18:32:04;;;;;;;3.47;2.08;;;;;;;;;;10149246;29;20064;-84
2023/03/18 18:37:08;;;;;;;5.35;3.05;;;;;;;;;;10160938;29;20043;-83
2023/03/18 18:42:12;;;;;;;5.55;3.35;;;;;;;;;;10166379;29;20135;-84
2023/03/18 18:47:19;;;;;;;5.38;3.75;;;;;;;;;;10148127;29;20323;-83
2023/03/18 18:52:22;;;;;;;5.50;3.50;;;;;;;;;;10164253;29;20075;-83
2023/03/18 18:57:28;;;;;;;5.00;2.90;;;;;;;;;;10146659;29;20054;-84
2023/03/18 19:02:36;;;;;;;8.75;3.20;;;;;;;;;;10150159;29;20045;-83
2023/03/18 19:07:41;;;;;;;8.15;4.10;;;;;;;;;;10147789;29;20071;-82
2023/03/18 19:12:46;;;;;;;8.20;4.82;;;;;;;;;;10169493;29;20052;-83
2023/03/18 19:17:50;;;;;;;6.40;3.60;;;;;;;;;;10104727;29;20060;-82
2023/03/18 19:22:55;;;;;;;7.72;3.58;;;;;;;;;;10125393;29;20064;-83
2023/03/18 19:27:59;;;;;;;5.82;2.80;;;;;;;;;;10146076;29;20056;-83
2023/03/18 19:33:13;;;;;;;7.85;3.38;;;;;;;;;;10144595;29;20135;-82
2023/03/18 19:38:20;;;;;;;5.95;3.30;;;;;;;;;;10140174;29;20522;-83
2023/03/18 19:43:23;;;;;;;5.07;2.75;;;;;;;;;;10129993;29;20802;-82
2023/03/18 19:48:28;;;;;;;8.60;3.55;;;;;;;;;;10123111;29;20676;-82
2023/03/18 19:53:32;;;;;;;6.72;3.25;;;;;;;;;;10129332;29;20055;-83
2023/03/18 19:58:35;;;;;;;8.07;3.50;;;;;;;;;;10120313;29;20071;-83
2023/03/18 20:03:40;;;;;;;6.40;3.10;;;;;;;;;;10132301;29;20040;-82
2023/03/18 20:08:44;;;;;;;9.38;3.83;;;;;;;;;;10129368;29;20103;-84
2023/03/18 20:13:47;;;;;;;4.43;3.03;;;;;;;;;;10108713;29;20427;-82
2023/03/18 20:18:53;;;;;;;6.65;3.95;;;;;;;;;;10127445;29;20052;-83
2023/03/18 20:24:06;;;;;;;6.65;3.78;;;;;;;;;;10136882;29;20079;-83
2023/03/18 20:29:16;;;;;;;7.15;3.72;;;;;;;;;;10139415;29;20055;-82
2023/03/18 20:34:21;;;;;;;8.93;3.95;;;;;;;;;;10118257;29;20053;-82
2023/03/18 20:39:25;;;;;;;8.65;4.22;;;;;;;;;;10131681;29;20055;-83
2023/03/18 20:44:29;;;;;;;9.50;4.60;;;;;;;;;;10125559;29;20048;-82
2023/03/18 20:49:34;;;;;;;8.00;4.47;;;;;;;;;;10134921;29;20048;-83
2023/03/18 20:54:38;;;;;;;10.80;4.95;;;;;;;;;;10137144;29;20524;-83
2023/03/18 20:59:41;;;;;;;8.40;4.75;;;;;;;;;;10162574;29;20047;-83
2023/03/18 21:04:46;;;;;;;8.73;4.30;;;;;;;;;;10150031;29;20046;-83
2023/03/18 21:09:50;;;;;;;8.45;4.72;;;;;;;;;;10146450;29;20451;-83
2023/03/18 21:14:54;;;;;;;7.03;3.63;;;;;;;;;;10165143;29;20067;-83
2023/03/18 21:19:59;;;;;;;6.18;2.90;;;;;;;;;;10145924;29;20043;-83
2023/03/18 21:25:20;;;;;;;4.68;2.20;;;;;;;;;;10142904;29;20036;-82
2023/03/18 21:30:23;;;;;;;3.07;1.60;;;;;;;;;;10162038;29;20396;-82
2023/03/18 21:35:29;;;;;;;2.42;1.70;;;;;;;;;;10148663;29;20036;-82
2023/03/18 21:40:34;;;;;;;2.03;1.50;;;;;;;;;;10151404;29;20138;-82
2023/03/18 21:45:37;;;;;;;3.05;1.80;;;;;;;;;;10156591;29;20322;-82
2023/03/18 21:50:42;;;;;;;4.32;2.17;;;;;;;;;;10163412;29;20044;-82
2023/03/18 21:55:46;;;;;;;4.43;2.22;;;;;;;;;;10141198;29;20131;-83
2023/03/18 22:00:51;;;;;;;3.80;2.25;;;;;;;;;;10149145;29;20047;-82
2023/03/18 22:05:56;;;;;;;3.47;2.17;;;;;;;;;;10130512;29;20062;-82
2023/03/18 22:10:59;;;;;;;4.95;2.63;;;;;;;;;;10143899;29;20135;-81
2023/03/18 22:16:06;;;;;;;3.63;2.22;;;;;;;;;;10123102;29;20048;-82
2023/03/18 22:21:15;;;;;;;5.35;2.22;;;;;;;;;;10129810;29;20044;-81
2023/03/18 22:26:21;;;;;;;4.60;2.25;;;;;;;;;;10164122;29;20520;-83
2023/03/18 22:31:26;;;;;;;5.63;2.40;;;;;;;;;;10132037;29;20079;-82
2023/03/18 22:36:31;;;;;;;4.50;2.67;;;;;;;;;;10125417;29;20040;-81
2023/03/18 22:41:35;;;;;;;4.35;2.20;;;;;;;;;;10123449;29;20402;-81
2023/03/18 22:46:38;;;;;;;4.22;2.30;;;;;;;;;;10133186;29;20051;-82
2023/03/18 22:51:43;;;;;;;3.15;2.17;;;;;;;;;;10137527;29;20052;-82
2023/03/18 22:56:47;;;;;;;4.30;2.67;;;;;;;;;;10137210;29;20064;-83
2023/03/18 23:01:50;;;;;;;3.90;2.70;;;;;;;;;;10157439;29;20044;-83
2023/03/18 23:06:55;;;;;;;6.47;2.97;;;;;;;;;;10138117;29;20048;-83
2023/03/18 23:11:59;;;;;;;3.95;2.80;;;;;;;;;;10137827;29;20048;-82
2023/03/18 23:17:02;;;;;;;6.47;2.40;;;;;;;;;;10134543;29;20473;-82
2023/03/18 23:22:09;;;;;;;2.78;1.90;;;;;;;;;;10129139;29;20048;-82
2023/03/18 23:27:12;;;;;;;3.10;2.15;;;;;;;;;;10133474;29;20048;-81
2023/03/18 23:32:16;;;;;;;3.67;2.22;;;;;;;;;;10127344;29;20050;-80
2023/03/18 23:37:22;;;;;;;3.45;2.40;;;;;;;;;;10125064;29;20075;-81
2023/03/18 23:42:25;;;;;;;4.67;2.80;;;;;;;;;;10129026;29;20048;-80
2023/03/18 23:47:29;;;;;;;4.90;2.78;;;;;;;;;;10199982;23;20452;-87
2023/03/18 23:52:35;;;;;;;4.15;2.30;;;;;;;;;;10249536;29;20047;-87
2023/03/18 23:57:39;;;;;;;3.38;2.03;;;;;;;;;;10242435;29;20050;-87
